sensor_id;sensor_type;location;lat;lon;timestamp;P1;durP1;ratioP1;P2;durP2;ratioP2
15216;SDS011;7711;46.634;14.318;2022-10-24T00:01:07;8.43;;;6.03;;
15216;SDS011;7711;46.634;14.318;2022-10-24T00:03:36;7.03;;;5.67;;
15216;SDS011;7711;46.634;14.318;2022-10-24T00:06:04;9.97;;;6.47;;
15216;SDS011;7711;46.634;14.318;2022-10-24T00:08:33;8.93;;;6.80;;
15216;SDS011;7711;46.634;14.318;2022-10-24T00:11:06;11.27;;;7.10;;
15216;SDS011;7711;46.634;14.318;2022-10-24T00:13:34;9.97;;;6.70;;
15216;SDS011;7711;46.634;14.318;2022-10-24T00:16:01;11.53;;;6.83;;
15216;SDS011;7711;46.634;14.318;2022-10-24T00:18:30;10.23;;;7.07;;
15216;SDS011;7711;46.634;14.318;2022-10-24T00:20:58;7.43;;;6.60;;
15216;SDS011;7711;46.634;14.318;2022-10-24T00:23:26;11.73;;;6.97;;
15216;SDS011;7711;46.634;14.318;2022-10-24T00:25:53;10.87;;;6.90;;
15216;SDS011;7711;46.634;14.318;2022-10-24T00:28:25;11.90;;;6.47;;
15216;SDS011;7711;46.634;14.318;2022-10-24T00:30:53;7.90;;;6.20;;
15216;SDS011;7711;46.634;14.318;2022-10-24T00:33:21;7.83;;;6.03;;
15216;SDS011;7711;46.634;14.318;2022-10-24T00:35:49;6.63;;;5.80;;
15216;SDS011;7711;46.634;14.318;2022-10-24T00:38:20;7.57;;;5.93;;
15216;SDS011;7711;46.634;14.318;2022-10-24T00:40:47;6.20;;;5.60;;
15216;SDS011;7711;46.634;14.318;2022-10-24T00:43:16;8.23;;;5.53;;
15216;SDS011;7711;46.634;14.318;2022-10-24T00:45:47;12.03;;;5.30;;
15216;SDS011;7711;46.634;14.318;2022-10-24T00:48:21;6.83;;;5.93;;
15216;SDS011;7711;46.634;14.318;2022-10-24T00:50:51;6.10;;;5.50;;
15216;SDS011;7711;46.634;14.318;2022-10-24T00:53:23;7.57;;;6.23;;
15216;SDS011;7711;46.634;14.318;2022-10-24T00:55:54;6.90;;;5.30;;
15216;SDS011;7711;46.634;14.318;2022-10-24T00:58:24;6.47;;;5.43;;
15216;SDS011;7711;46.634;14.318;2022-10-24T01:00:53;7.47;;;6.57;;
15216;SDS011;7711;46.634;14.318;2022-10-24T01:03:21;10.47;;;6.83;;
15216;SDS011;7711;46.634;14.318;2022-10-24T01:05:53;9.90;;;7.00;;
15216;SDS011;7711;46.634;14.318;2022-10-24T01:08:35;9.77;;;6.40;;
15216;SDS011;7711;46.634;14.318;2022-10-24T01:11:10;9.83;;;6.70;;
15216;SDS011;7711;46.634;14.318;2022-10-24T01:13:55;7.03;;;6.00;;
15216;SDS011;7711;46.634;14.318;2022-10-24T01:16:27;9.40;;;6.90;;
15216;SDS011;7711;46.634;14.318;2022-10-24T01:19:02;9.03;;;6.40;;
15216;SDS011;7711;46.634;14.318;2022-10-24T01:21:37;11.17;;;6.90;;
15216;SDS011;7711;46.634;14.318;2022-10-24T01:24:18;9.93;;;7.07;;
15216;SDS011;7711;46.634;14.318;2022-10-24T01:27:00;9.67;;;6.57;;
15216;SDS011;7711;46.634;14.318;2022-10-24T01:30:01;10.77;;;6.33;;
15216;SDS011;7711;46.634;14.318;2022-10-24T01:32:35;11.63;;;6.00;;
15216;SDS011;7711;46.634;14.318;2022-10-24T01:38:00;7.03;;;6.33;;
15216;SDS011;7711;46.634;14.318;2022-10-24T01:40:35;7.67;;;6.20;;
15216;SDS011;7711;46.634;14.318;2022-10-24T01:43:07;8.90;;;6.43;;
15216;SDS011;7711;46.634;14.318;2022-10-24T01:45:39;8.47;;;6.40;;
15216;SDS011;7711;46.634;14.318;2022-10-24T01:48:11;8.70;;;6.27;;
15216;SDS011;7711;46.634;14.318;2022-10-24T01:50:47;7.77;;;5.70;;
15216;SDS011;7711;46.634;14.318;2022-10-24T01:53:16;6.57;;;5.70;;
15216;SDS011;7711;46.634;14.318;2022-10-24T01:55:44;7.93;;;5.53;;
15216;SDS011;7711;46.634;14.318;2022-10-24T01:58:13;8.10;;;5.97;;
15216;SDS011;7711;46.634;14.318;2022-10-24T02:00:42;8.00;;;5.80;;
15216;SDS011;7711;46.634;14.318;2022-10-24T02:03:15;6.30;;;5.47;;
15216;SDS011;7711;46.634;14.318;2022-10-24T02:05:48;6.10;;;5.40;;
15216;SDS011;7711;46.634;14.318;2022-10-24T02:08:20;6.03;;;5.37;;
15216;SDS011;7711;46.634;14.318;2022-10-24T02:10:51;8.90;;;5.20;;
15216;SDS011;7711;46.634;14.318;2022-10-24T02:13:23;8.43;;;5.53;;
15216;SDS011;7711;46.634;14.318;2022-10-24T02:15:56;6.07;;;5.10;;
15216;SDS011;7711;46.634;14.318;2022-10-24T02:18:26;8.73;;;5.70;;
15216;SDS011;7711;46.634;14.318;2022-10-24T02:20:58;6.70;;;5.73;;
15216;SDS011;7711;46.634;14.318;2022-10-24T02:23:33;7.77;;;6.13;;
15216;SDS011;7711;46.634;14.318;2022-10-24T02:26:04;7.33;;;5.80;;
15216;SDS011;7711;46.634;14.318;2022-10-24T02:28:37;6.73;;;6.03;;
15216;SDS011;7711;46.634;14.318;2022-10-24T02:31:11;7.20;;;5.90;;
15216;SDS011;7711;46.634;14.318;2022-10-24T02:33:41;8.83;;;5.83;;
15216;SDS011;7711;46.634;14.318;2022-10-24T02:36:14;6.57;;;5.83;;
15216;SDS011;7711;46.634;14.318;2022-10-24T02:38:45;6.80;;;5.60;;
15216;SDS011;7711;46.634;14.318;2022-10-24T02:41:15;8.20;;;5.60;;
15216;SDS011;7711;46.634;14.318;2022-10-24T02:43:46;5.50;;;4.97;;
15216;SDS011;7711;46.634;14.318;2022-10-24T02:46:17;6.53;;;5.40;;
15216;SDS011;7711;46.634;14.318;2022-10-24T02:48:46;7.70;;;6.10;;
15216;SDS011;7711;46.634;14.318;2022-10-24T02:51:18;8.20;;;5.63;;
15216;SDS011;7711;46.634;14.318;2022-10-24T02:53:48;6.13;;;5.53;;
15216;SDS011;7711;46.634;14.318;2022-10-24T02:56:16;9.27;;;5.60;;
15216;SDS011;7711;46.634;14.318;2022-10-24T02:58:43;7.30;;;5.47;;
15216;SDS011;7711;46.634;14.318;2022-10-24T03:01:10;7.37;;;5.33;;
15216;SDS011;7711;46.634;14.318;2022-10-24T03:03:39;6.13;;;5.50;;
15216;SDS011;7711;46.634;14.318;2022-10-24T03:06:06;6.33;;;5.70;;
15216;SDS011;7711;46.634;14.318;2022-10-24T03:08:33;6.90;;;5.67;;
15216;SDS011;7711;46.634;14.318;2022-10-24T03:11:01;7.60;;;5.80;;
15216;SDS011;7711;46.634;14.318;2022-10-24T03:13:28;6.23;;;5.07;;
15216;SDS011;7711;46.634;14.318;2022-10-24T03:15:59;6.60;;;5.80;;
15216;SDS011;7711;46.634;14.318;2022-10-24T03:18:26;6.63;;;5.37;;
15216;SDS011;7711;46.634;14.318;2022-10-24T03:20:55;6.00;;;5.40;;
15216;SDS011;7711;46.634;14.318;2022-10-24T03:23:22;6.73;;;5.17;;
15216;SDS011;7711;46.634;14.318;2022-10-24T03:25:52;5.73;;;5.13;;
15216;SDS011;7711;46.634;14.318;2022-10-24T03:28:20;6.40;;;5.63;;
15216;SDS011;7711;46.634;14.318;2022-10-24T03:30:47;7.40;;;5.10;;
15216;SDS011;7711;46.634;14.318;2022-10-24T03:33:14;5.33;;;4.83;;
15216;SDS011;7711;46.634;14.318;2022-10-24T03:35:41;7.93;;;4.80;;
15216;SDS011;7711;46.634;14.318;2022-10-24T03:38:10;8.63;;;5.07;;
15216;SDS011;7711;46.634;14.318;2022-10-24T03:40:39;5.93;;;5.33;;
15216;SDS011;7711;46.634;14.318;2022-10-24T03:43:07;5.87;;;5.23;;
15216;SDS011;7711;46.634;14.318;2022-10-24T03:45:34;9.03;;;5.47;;
15216;SDS011;7711;46.634;14.318;2022-10-24T03:48:02;7.80;;;5.07;;
15216;SDS011;7711;46.634;14.318;2022-10-24T03:50:32;6.97;;;5.30;;
15216;SDS011;7711;46.634;14.318;2022-10-24T03:53:00;9.57;;;5.93;;
15216;SDS011;7711;46.634;14.318;2022-10-24T03:55:29;7.83;;;5.97;;
15216;SDS011;7711;46.634;14.318;2022-10-24T03:57:58;6.57;;;5.63;;
15216;SDS011;7711;46.634;14.318;2022-10-24T04:00:25;9.07;;;6.17;;
15216;SDS011;7711;46.634;14.318;2022-10-24T04:02:53;7.80;;;6.30;;
15216;SDS011;7711;46.634;14.318;2022-10-24T04:05:20;6.53;;;5.57;;
15216;SDS011;7711;46.634;14.318;2022-10-24T04:07:48;9.43;;;6.20;;
15216;SDS011;7711;46.634;14.318;2022-10-24T04:10:15;10.47;;;6.73;;
15216;SDS011;7711;46.634;14.318;2022-10-24T04:12:44;9.77;;;6.77;;
15216;SDS011;7711;46.634;14.318;2022-10-24T04:15:11;9.87;;;6.70;;
15216;SDS011;7711;46.634;14.318;2022-10-24T04:17:39;10.30;;;6.53;;
15216;SDS011;7711;46.634;14.318;2022-10-24T04:20:09;10.63;;;6.07;;
15216;SDS011;7711;46.634;14.318;2022-10-24T04:22:36;10.17;;;6.40;;
15216;SDS011;7711;46.634;14.318;2022-10-24T04:25:05;10.13;;;6.53;;
15216;SDS011;7711;46.634;14.318;2022-10-24T04:27:32;11.53;;;7.40;;
15216;SDS011;7711;46.634;14.318;2022-10-24T04:30:06;13.10;;;7.40;;
15216;SDS011;7711;46.634;14.318;2022-10-24T04:32:34;11.27;;;6.93;;
15216;SDS011;7711;46.634;14.318;2022-10-24T04:35:02;10.90;;;6.67;;
15216;SDS011;7711;46.634;14.318;2022-10-24T04:37:30;12.43;;;6.10;;
15216;SDS011;7711;46.634;14.318;2022-10-24T04:39:59;10.13;;;6.00;;
15216;SDS011;7711;46.634;14.318;2022-10-24T04:42:26;11.53;;;6.20;;
15216;SDS011;7711;46.634;14.318;2022-10-24T04:44:53;9.50;;;6.43;;
15216;SDS011;7711;46.634;14.318;2022-10-24T04:47:22;10.00;;;6.60;;
15216;SDS011;7711;46.634;14.318;2022-10-24T04:49:49;11.00;;;5.87;;
15216;SDS011;7711;46.634;14.318;2022-10-24T04:52:16;8.63;;;6.10;;
15216;SDS011;7711;46.634;14.318;2022-10-24T04:54:44;9.30;;;6.27;;
15216;SDS011;7711;46.634;14.318;2022-10-24T04:57:12;15.70;;;6.50;;
15216;SDS011;7711;46.634;14.318;2022-10-24T04:59:39;16.43;;;11.47;;
15216;SDS011;7711;46.634;14.318;2022-10-24T05:02:06;14.73;;;12.70;;
15216;SDS011;7711;46.634;14.318;2022-10-24T05:04:35;13.23;;;8.90;;
15216;SDS011;7711;46.634;14.318;2022-10-24T05:07:02;9.77;;;6.43;;
15216;SDS011;7711;46.634;14.318;2022-10-24T05:09:30;10.80;;;6.23;;
15216;SDS011;7711;46.634;14.318;2022-10-24T05:11:57;10.97;;;7.07;;
15216;SDS011;7711;46.634;14.318;2022-10-24T05:14:26;11.40;;;6.27;;
15216;SDS011;7711;46.634;14.318;2022-10-24T05:16:55;9.10;;;6.43;;
15216;SDS011;7711;46.634;14.318;2022-10-24T05:19:23;9.80;;;6.63;;
15216;SDS011;7711;46.634;14.318;2022-10-24T05:21:51;11.33;;;6.77;;
15216;SDS011;7711;46.634;14.318;2022-10-24T05:24:19;8.67;;;5.93;;
15216;SDS011;7711;46.634;14.318;2022-10-24T05:26:46;8.37;;;6.20;;
15216;SDS011;7711;46.634;14.318;2022-10-24T05:29:13;7.00;;;6.10;;
15216;SDS011;7711;46.634;14.318;2022-10-24T05:31:40;7.57;;;6.07;;
15216;SDS011;7711;46.634;14.318;2022-10-24T05:34:07;11.67;;;6.10;;
15216;SDS011;7711;46.634;14.318;2022-10-24T05:36:34;6.93;;;6.23;;
15216;SDS011;7711;46.634;14.318;2022-10-24T05:39:06;12.07;;;6.90;;
15216;SDS011;7711;46.634;14.318;2022-10-24T05:41:34;9.47;;;6.70;;
15216;SDS011;7711;46.634;14.318;2022-10-24T05:44:02;9.07;;;6.87;;
15216;SDS011;7711;46.634;14.318;2022-10-24T05:46:29;10.10;;;7.30;;
15216;SDS011;7711;46.634;14.318;2022-10-24T05:48:57;9.37;;;7.00;;
15216;SDS011;7711;46.634;14.318;2022-10-24T05:51:48;10.93;;;6.90;;
15216;SDS011;7711;46.634;14.318;2022-10-24T05:57:34;18.20;;;12.27;;
15216;SDS011;7711;46.634;14.318;2022-10-24T06:00:05;20.77;;;13.67;;
15216;SDS011;7711;46.634;14.318;2022-10-24T06:02:37;17.03;;;12.40;;
15216;SDS011;7711;46.634;14.318;2022-10-24T06:05:08;17.53;;;10.20;;
15216;SDS011;7711;46.634;14.318;2022-10-24T06:07:37;18.70;;;10.10;;
15216;SDS011;7711;46.634;14.318;2022-10-24T06:10:11;13.40;;;9.70;;
15216;SDS011;7711;46.634;14.318;2022-10-24T06:12:42;12.63;;;8.73;;
15216;SDS011;7711;46.634;14.318;2022-10-24T06:15:10;11.80;;;8.63;;
15216;SDS011;7711;46.634;14.318;2022-10-24T06:17:41;13.40;;;8.97;;
15216;SDS011;7711;46.634;14.318;2022-10-24T06:20:09;13.00;;;9.03;;
15216;SDS011;7711;46.634;14.318;2022-10-24T06:22:39;11.83;;;8.20;;
15216;SDS011;7711;46.634;14.318;2022-10-24T06:25:11;11.47;;;8.77;;
15216;SDS011;7711;46.634;14.318;2022-10-24T06:27:47;10.77;;;7.70;;
15216;SDS011;7711;46.634;14.318;2022-10-24T06:30:14;19.47;;;9.70;;
15216;SDS011;7711;46.634;14.318;2022-10-24T06:32:42;12.37;;;7.67;;
15216;SDS011;7711;46.634;14.318;2022-10-24T06:35:11;13.83;;;7.87;;
15216;SDS011;7711;46.634;14.318;2022-10-24T06:37:40;25.63;;;12.60;;
15216;SDS011;7711;46.634;14.318;2022-10-24T06:40:12;20.37;;;17.23;;
15216;SDS011;7711;46.634;14.318;2022-10-24T06:42:42;27.07;;;18.03;;
15216;SDS011;7711;46.634;14.318;2022-10-24T06:45:11;26.33;;;14.93;;
15216;SDS011;7711;46.634;14.318;2022-10-24T06:47:38;22.93;;;12.97;;
15216;SDS011;7711;46.634;14.318;2022-10-24T06:50:07;14.80;;;10.03;;
15216;SDS011;7711;46.634;14.318;2022-10-24T06:52:36;15.97;;;9.00;;
15216;SDS011;7711;46.634;14.318;2022-10-24T06:55:04;9.13;;;8.13;;
15216;SDS011;7711;46.634;14.318;2022-10-24T06:57:34;14.33;;;10.10;;
15216;SDS011;7711;46.634;14.318;2022-10-24T07:00:03;21.03;;;11.23;;
15216;SDS011;7711;46.634;14.318;2022-10-24T07:02:31;14.53;;;10.27;;
15216;SDS011;7711;46.634;14.318;2022-10-24T07:04:59;17.60;;;9.87;;
15216;SDS011;7711;46.634;14.318;2022-10-24T07:07:36;9.97;;;8.00;;
15216;SDS011;7711;46.634;14.318;2022-10-24T07:10:06;12.17;;;9.43;;
15216;SDS011;7711;46.634;14.318;2022-10-24T07:12:42;10.43;;;8.57;;
15216;SDS011;7711;46.634;14.318;2022-10-24T07:15:10;11.40;;;9.30;;
15216;SDS011;7711;46.634;14.318;2022-10-24T07:17:40;10.53;;;7.97;;
15216;SDS011;7711;46.634;14.318;2022-10-24T07:20:08;9.83;;;8.23;;
15216;SDS011;7711;46.634;14.318;2022-10-24T07:22:38;13.20;;;8.43;;
15216;SDS011;7711;46.634;14.318;2022-10-24T07:25:06;14.33;;;9.03;;
15216;SDS011;7711;46.634;14.318;2022-10-24T07:27:37;40.10;;;26.27;;
15216;SDS011;7711;46.634;14.318;2022-10-24T07:30:18;15.03;;;9.60;;
15216;SDS011;7711;46.634;14.318;2022-10-24T07:32:46;10.00;;;6.87;;
15216;SDS011;7711;46.634;14.318;2022-10-24T07:35:14;11.60;;;7.73;;
15216;SDS011;7711;46.634;14.318;2022-10-24T07:37:42;7.73;;;6.37;;
15216;SDS011;7711;46.634;14.318;2022-10-24T07:40:11;7.77;;;6.50;;
15216;SDS011;7711;46.634;14.318;2022-10-24T07:42:43;11.13;;;6.50;;
15216;SDS011;7711;46.634;14.318;2022-10-24T07:45:11;8.37;;;6.20;;
15216;SDS011;7711;46.634;14.318;2022-10-24T07:47:40;9.17;;;6.43;;
15216;SDS011;7711;46.634;14.318;2022-10-24T07:50:09;8.43;;;6.70;;
15216;SDS011;7711;46.634;14.318;2022-10-24T07:52:41;7.23;;;6.23;;
15216;SDS011;7711;46.634;14.318;2022-10-24T07:55:10;11.33;;;6.37;;
15216;SDS011;7711;46.634;14.318;2022-10-24T07:57:40;11.47;;;6.97;;
15216;SDS011;7711;46.634;14.318;2022-10-24T08:00:10;8.40;;;6.60;;
15216;SDS011;7711;46.634;14.318;2022-10-24T08:02:37;26.77;;;17.13;;
15216;SDS011;7711;46.634;14.318;2022-10-24T08:05:09;21.23;;;9.60;;
15216;SDS011;7711;46.634;14.318;2022-10-24T08:07:38;9.23;;;8.17;;
15216;SDS011;7711;46.634;14.318;2022-10-24T08:10:05;14.50;;;12.60;;
15216;SDS011;7711;46.634;14.318;2022-10-24T08:12:37;10.00;;;7.40;;
15216;SDS011;7711;46.634;14.318;2022-10-24T08:15:05;11.03;;;7.50;;
15216;SDS011;7711;46.634;14.318;2022-10-24T08:17:32;10.57;;;8.77;;
15216;SDS011;7711;46.634;14.318;2022-10-24T08:20:03;14.30;;;11.63;;
15216;SDS011;7711;46.634;14.318;2022-10-24T08:22:32;10.07;;;6.40;;
15216;SDS011;7711;46.634;14.318;2022-10-24T08:24:59;16.13;;;6.40;;
15216;SDS011;7711;46.634;14.318;2022-10-24T08:27:30;12.50;;;6.07;;
15216;SDS011;7711;46.634;14.318;2022-10-24T08:29:58;7.20;;;6.37;;
15216;SDS011;7711;46.634;14.318;2022-10-24T08:32:30;6.60;;;4.93;;
15216;SDS011;7711;46.634;14.318;2022-10-24T08:34:57;7.10;;;5.83;;
15216;SDS011;7711;46.634;14.318;2022-10-24T08:37:30;6.25;;;5.63;;
15216;SDS011;7711;46.634;14.318;2022-10-24T08:39:57;13.10;;;9.60;;
15216;SDS011;7711;46.634;14.318;2022-10-24T08:42:26;7.40;;;6.70;;
15216;SDS011;7711;46.634;14.318;2022-10-24T08:44:55;7.07;;;6.37;;
15216;SDS011;7711;46.634;14.318;2022-10-24T08:47:25;10.00;;;6.37;;
15216;SDS011;7711;46.634;14.318;2022-10-24T08:50:00;7.03;;;6.33;;
15216;SDS011;7711;46.634;14.318;2022-10-24T08:52:37;7.33;;;6.63;;
15216;SDS011;7711;46.634;14.318;2022-10-24T08:55:12;24.57;;;19.03;;
15216;SDS011;7711;46.634;14.318;2022-10-24T08:57:43;14.23;;;11.17;;
15216;SDS011;7711;46.634;14.318;2022-10-24T09:00:16;14.60;;;10.97;;
15216;SDS011;7711;46.634;14.318;2022-10-24T09:02:53;9.47;;;8.57;;
15216;SDS011;7711;46.634;14.318;2022-10-24T09:05:23;9.33;;;8.30;;
15216;SDS011;7711;46.634;14.318;2022-10-24T09:07:57;8.43;;;7.60;;
15216;SDS011;7711;46.634;14.318;2022-10-24T09:10:32;7.07;;;6.10;;
15216;SDS011;7711;46.634;14.318;2022-10-24T09:13:10;10.32;;;8.13;;
15216;SDS011;7711;46.634;14.318;2022-10-24T09:15:41;8.32;;;7.50;;
15216;SDS011;7711;46.634;14.318;2022-10-24T09:18:13;6.13;;;5.55;;
15216;SDS011;7711;46.634;14.318;2022-10-24T09:20:46;9.80;;;5.97;;
15216;SDS011;7711;46.634;14.318;2022-10-24T09:23:19;7.88;;;6.53;;
15216;SDS011;7711;46.634;14.318;2022-10-24T09:25:51;15.65;;;7.30;;
15216;SDS011;7711;46.634;14.318;2022-10-24T09:28:20;12.63;;;6.30;;
15216;SDS011;7711;46.634;14.318;2022-10-24T09:30:49;10.68;;;6.50;;
15216;SDS011;7711;46.634;14.318;2022-10-24T09:33:21;10.60;;;6.18;;
15216;SDS011;7711;46.634;14.318;2022-10-24T09:35:53;12.30;;;5.78;;
15216;SDS011;7711;46.634;14.318;2022-10-24T09:38:25;10.63;;;6.00;;
15216;SDS011;7711;46.634;14.318;2022-10-24T09:41:05;6.55;;;5.68;;
15216;SDS011;7711;46.634;14.318;2022-10-24T09:43:45;8.48;;;5.38;;
15216;SDS011;7711;46.634;14.318;2022-10-24T09:46:15;9.10;;;5.15;;
15216;SDS011;7711;46.634;14.318;2022-10-24T09:48:53;6.30;;;5.18;;
15216;SDS011;7711;46.634;14.318;2022-10-24T09:51:26;7.45;;;5.00;;
15216;SDS011;7711;46.634;14.318;2022-10-24T09:54:23;9.85;;;5.07;;
15216;SDS011;7711;46.634;14.318;2022-10-24T09:56:55;13.13;;;5.45;;
15216;SDS011;7711;46.634;14.318;2022-10-24T09:59:30;13.90;;;8.45;;
15216;SDS011;7711;46.634;14.318;2022-10-24T10:02:13;8.57;;;6.00;;
15216;SDS011;7711;46.634;14.318;2022-10-24T10:05:09;8.70;;;5.80;;
15216;SDS011;7711;46.634;14.318;2022-10-24T10:07:45;10.23;;;5.30;;
15216;SDS011;7711;46.634;14.318;2022-10-24T10:10:24;8.05;;;5.32;;
15216;SDS011;7711;46.634;14.318;2022-10-24T10:12:55;6.07;;;5.15;;
15216;SDS011;7711;46.634;14.318;2022-10-24T10:15:32;8.52;;;5.50;;
15216;SDS011;7711;46.634;14.318;2022-10-24T10:18:03;12.93;;;6.03;;
15216;SDS011;7711;46.634;14.318;2022-10-24T10:20:40;8.00;;;6.05;;
15216;SDS011;7711;46.634;14.318;2022-10-24T10:23:21;12.02;;;6.22;;
15216;SDS011;7711;46.634;14.318;2022-10-24T10:26:17;8.60;;;5.70;;
15216;SDS011;7711;46.634;14.318;2022-10-24T10:29:01;6.32;;;5.57;;
15216;SDS011;7711;46.634;14.318;2022-10-24T10:31:32;11.95;;;6.85;;
15216;SDS011;7711;46.634;14.318;2022-10-24T10:34:13;10.57;;;5.93;;
15216;SDS011;7711;46.634;14.318;2022-10-24T10:37:00;9.43;;;5.80;;
15216;SDS011;7711;46.634;14.318;2022-10-24T10:39:55;9.73;;;5.72;;
15216;SDS011;7711;46.634;14.318;2022-10-24T10:49:08;12.88;;;6.65;;
15216;SDS011;7711;46.634;14.318;2022-10-24T10:51:42;12.77;;;6.88;;
15216;SDS011;7711;46.634;14.318;2022-10-24T10:54:36;7.35;;;5.72;;
15216;SDS011;7711;46.634;14.318;2022-10-24T10:57:15;11.05;;;6.15;;
15216;SDS011;7711;46.634;14.318;2022-10-24T10:59:49;8.57;;;6.07;;
15216;SDS011;7711;46.634;14.318;2022-10-24T11:02:39;9.10;;;5.90;;
15216;SDS011;7711;46.634;14.318;2022-10-24T11:05:26;10.75;;;5.47;;
15216;SDS011;7711;46.634;14.318;2022-10-24T11:08:09;8.75;;;6.25;;
15216;SDS011;7711;46.634;14.318;2022-10-24T11:10:50;9.48;;;6.25;;
15216;SDS011;7711;46.634;14.318;2022-10-24T11:13:21;14.32;;;6.05;;
15216;SDS011;7711;46.634;14.318;2022-10-24T11:15:53;11.05;;;6.18;;
15216;SDS011;7711;46.634;14.318;2022-10-24T11:18:28;9.13;;;6.25;;
15216;SDS011;7711;46.634;14.318;2022-10-24T11:21:01;14.23;;;5.97;;
15216;SDS011;7711;46.634;14.318;2022-10-24T11:23:33;10.95;;;5.88;;
15216;SDS011;7711;46.634;14.318;2022-10-24T11:26:05;17.30;;;6.25;;
15216;SDS011;7711;46.634;14.318;2022-10-24T11:28:39;26.67;;;6.78;;
15216;SDS011;7711;46.634;14.318;2022-10-24T11:31:13;16.08;;;5.78;;
15216;SDS011;7711;46.634;14.318;2022-10-24T11:33:48;18.55;;;5.68;;
15216;SDS011;7711;46.634;14.318;2022-10-24T11:36:26;15.50;;;6.70;;
15216;SDS011;7711;46.634;14.318;2022-10-24T11:38:59;9.55;;;5.43;;
15216;SDS011;7711;46.634;14.318;2022-10-24T11:41:49;14.55;;;6.15;;
15216;SDS011;7711;46.634;14.318;2022-10-24T11:44:25;20.92;;;6.38;;
15216;SDS011;7711;46.634;14.318;2022-10-24T11:47:06;24.48;;;6.45;;
15216;SDS011;7711;46.634;14.318;2022-10-24T11:49:55;13.52;;;6.15;;
15216;SDS011;7711;46.634;14.318;2022-10-24T11:52:36;24.83;;;6.20;;
15216;SDS011;7711;46.634;14.318;2022-10-24T11:55:10;15.23;;;5.60;;
15216;SDS011;7711;46.634;14.318;2022-10-24T11:57:42;13.48;;;5.75;;
15216;SDS011;7711;46.634;14.318;2022-10-24T12:00:17;9.25;;;5.50;;
15216;SDS011;7711;46.634;14.318;2022-10-24T12:03:05;16.73;;;6.20;;
15216;SDS011;7711;46.634;14.318;2022-10-24T12:06:01;12.85;;;6.55;;
15216;SDS011;7711;46.634;14.318;2022-10-24T12:08:44;10.93;;;6.15;;
15216;SDS011;7711;46.634;14.318;2022-10-24T12:11:42;12.15;;;5.70;;
15216;SDS011;7711;46.634;14.318;2022-10-24T12:14:40;14.65;;;6.00;;
15216;SDS011;7711;46.634;14.318;2022-10-24T12:17:31;10.20;;;5.60;;
15216;SDS011;7711;46.634;14.318;2022-10-24T12:20:21;8.00;;;5.60;;
15216;SDS011;7711;46.634;14.318;2022-10-24T12:22:51;13.43;;;6.88;;
15216;SDS011;7711;46.634;14.318;2022-10-24T12:25:26;12.52;;;5.88;;
15216;SDS011;7711;46.634;14.318;2022-10-24T12:27:57;11.77;;;6.55;;
15216;SDS011;7711;46.634;14.318;2022-10-24T12:30:28;8.20;;;5.60;;
15216;SDS011;7711;46.634;14.318;2022-10-24T12:33:05;14.45;;;6.18;;
15216;SDS011;7711;46.634;14.318;2022-10-24T12:35:44;18.50;;;6.82;;
15216;SDS011;7711;46.634;14.318;2022-10-24T12:38:17;12.70;;;5.85;;
15216;SDS011;7711;46.634;14.318;2022-10-24T12:41:04;8.02;;;6.00;;
15216;SDS011;7711;46.634;14.318;2022-10-24T12:47:30;11.50;;;6.18;;
15216;SDS011;7711;46.634;14.318;2022-10-24T12:53:16;13.73;;;6.45;;
15216;SDS011;7711;46.634;14.318;2022-10-24T12:56:00;8.52;;;6.13;;
15216;SDS011;7711;46.634;14.318;2022-10-24T12:58:54;11.82;;;6.00;;
15216;SDS011;7711;46.634;14.318;2022-10-24T13:01:35;11.07;;;6.10;;
15216;SDS011;7711;46.634;14.318;2022-10-24T13:10:27;12.88;;;6.75;;
15216;SDS011;7711;46.634;14.318;2022-10-24T13:16:30;11.98;;;5.60;;
15216;SDS011;7711;46.634;14.318;2022-10-24T13:19:13;13.27;;;7.03;;
15216;SDS011;7711;46.634;14.318;2022-10-24T13:21:45;11.38;;;5.85;;
15216;SDS011;7711;46.634;14.318;2022-10-24T13:24:23;9.15;;;6.32;;
15216;SDS011;7711;46.634;14.318;2022-10-24T13:29:59;11.57;;;6.90;;
15216;SDS011;7711;46.634;14.318;2022-10-24T13:32:32;14.35;;;6.85;;
15216;SDS011;7711;46.634;14.318;2022-10-24T13:35:05;15.27;;;7.22;;
15216;SDS011;7711;46.634;14.318;2022-10-24T13:37:46;14.77;;;6.85;;
15216;SDS011;7711;46.634;14.318;2022-10-24T13:40:18;13.52;;;6.85;;
15216;SDS011;7711;46.634;14.318;2022-10-24T13:42:53;15.15;;;6.88;;
15216;SDS011;7711;46.634;14.318;2022-10-24T13:45:25;11.93;;;7.00;;
15216;SDS011;7711;46.634;14.318;2022-10-24T13:48:05;14.93;;;7.22;;
15216;SDS011;7711;46.634;14.318;2022-10-24T13:50:37;12.00;;;7.65;;
15216;SDS011;7711;46.634;14.318;2022-10-24T13:53:16;10.82;;;6.80;;
15216;SDS011;7711;46.634;14.318;2022-10-24T13:55:47;13.10;;;7.32;;
15216;SDS011;7711;46.634;14.318;2022-10-24T13:58:36;12.43;;;7.57;;
15216;SDS011;7711;46.634;14.318;2022-10-24T14:01:05;21.35;;;7.78;;
15216;SDS011;7711;46.634;14.318;2022-10-24T14:03:41;23.73;;;8.27;;
15216;SDS011;7711;46.634;14.318;2022-10-24T14:06:10;22.45;;;7.78;;
15216;SDS011;7711;46.634;14.318;2022-10-24T14:08:47;15.00;;;7.40;;
15216;SDS011;7711;46.634;14.318;2022-10-24T14:11:18;13.35;;;7.05;;
15216;SDS011;7711;46.634;14.318;2022-10-24T14:13:48;12.00;;;6.68;;
15216;SDS011;7711;46.634;14.318;2022-10-24T14:16:22;15.15;;;6.90;;
15216;SDS011;7711;46.634;14.318;2022-10-24T14:18:51;12.65;;;6.63;;
15216;SDS011;7711;46.634;14.318;2022-10-24T14:21:38;10.50;;;5.85;;
15216;SDS011;7711;46.634;14.318;2022-10-24T14:24:09;12.18;;;5.93;;
15216;SDS011;7711;46.634;14.318;2022-10-24T14:26:42;13.15;;;7.55;;
15216;SDS011;7711;46.634;14.318;2022-10-24T14:29:18;17.63;;;7.45;;
15216;SDS011;7711;46.634;14.318;2022-10-24T14:31:52;11.50;;;6.53;;
15216;SDS011;7711;46.634;14.318;2022-10-24T14:34:25;15.52;;;7.07;;
15216;SDS011;7711;46.634;14.318;2022-10-24T14:36:55;22.17;;;6.63;;
15216;SDS011;7711;46.634;14.318;2022-10-24T14:39:29;23.17;;;8.38;;
15216;SDS011;7711;46.634;14.318;2022-10-24T14:41:58;14.02;;;7.00;;
15216;SDS011;7711;46.634;14.318;2022-10-24T14:44:27;14.95;;;7.13;;
15216;SDS011;7711;46.634;14.318;2022-10-24T14:47:02;82.18;;;13.35;;
15216;SDS011;7711;46.634;14.318;2022-10-24T14:49:35;136.85;;;17.08;;
15216;SDS011;7711;46.634;14.318;2022-10-24T14:52:07;54.50;;;11.07;;
15216;SDS011;7711;46.634;14.318;2022-10-24T14:54:42;42.25;;;9.48;;
15216;SDS011;7711;46.634;14.318;2022-10-24T14:57:17;31.27;;;17.35;;
15216;SDS011;7711;46.634;14.318;2022-10-24T14:59:48;20.30;;;12.43;;
15216;SDS011;7711;46.634;14.318;2022-10-24T15:02:19;20.60;;;11.30;;
15216;SDS011;7711;46.634;14.318;2022-10-24T15:04:50;18.70;;;12.07;;
15216;SDS011;7711;46.634;14.318;2022-10-24T15:07:28;18.48;;;11.55;;
15216;SDS011;7711;46.634;14.318;2022-10-24T15:12:53;18.23;;;11.38;;
15216;SDS011;7711;46.634;14.318;2022-10-24T15:15:28;13.77;;;9.30;;
15216;SDS011;7711;46.634;14.318;2022-10-24T15:17:58;18.90;;;9.77;;
15216;SDS011;7711;46.634;14.318;2022-10-24T15:20:33;11.85;;;9.02;;
15216;SDS011;7711;46.634;14.318;2022-10-24T15:23:04;16.92;;;10.23;;
15216;SDS011;7711;46.634;14.318;2022-10-24T15:25:35;20.45;;;11.93;;
15216;SDS011;7711;46.634;14.318;2022-10-24T15:28:05;15.98;;;11.13;;
15216;SDS011;7711;46.634;14.318;2022-10-24T15:30:35;15.07;;;10.68;;
15216;SDS011;7711;46.634;14.318;2022-10-24T15:33:04;21.65;;;10.88;;
15216;SDS011;7711;46.634;14.318;2022-10-24T15:35:33;15.43;;;10.45;;
15216;SDS011;7711;46.634;14.318;2022-10-24T15:38:11;18.10;;;10.88;;
15216;SDS011;7711;46.634;14.318;2022-10-24T15:40:47;14.13;;;10.00;;
15216;SDS011;7711;46.634;14.318;2022-10-24T15:43:16;18.27;;;10.20;;
15216;SDS011;7711;46.634;14.318;2022-10-24T15:45:46;17.52;;;11.07;;